sensor_id;sensor_type;location;lat;lon;timestamp;P1;durP1;ratioP1;P2;durP2;ratioP2
21046;SDS011;10682;50.874;3.656;2023-04-29T00:01:23;54.93;;;26.97;;
21046;SDS011;10682;50.874;3.656;2023-04-29T00:03:51;49.10;;;24.53;;
21046;SDS011;10682;50.874;3.656;2023-04-29T00:06:19;52.87;;;24.87;;
21046;SDS011;10682;50.874;3.656;2023-04-29T00:08:46;52.40;;;24.93;;
21046;SDS011;10682;50.874;3.656;2023-04-29T00:11:13;50.80;;;25.53;;
21046;SDS011;10682;50.874;3.656;2023-04-29T00:13:40;53.57;;;25.27;;
21046;SDS011;10682;50.874;3.656;2023-04-29T00:16:07;52.77;;;24.57;;
21046;SDS011;10682;50.874;3.656;2023-04-29T00:18:37;54.20;;;26.10;;
21046;SDS011;10682;50.874;3.656;2023-04-29T00:21:04;50.10;;;25.13;;
21046;SDS011;10682;50.874;3.656;2023-04-29T00:23:32;57.57;;;26.70;;
21046;SDS011;10682;50.874;3.656;2023-04-29T00:25:59;53.40;;;25.83;;
21046;SDS011;10682;50.874;3.656;2023-04-29T00:28:26;48.93;;;24.73;;
21046;SDS011;10682;50.874;3.656;2023-04-29T00:30:53;58.37;;;27.30;;
21046;SDS011;10682;50.874;3.656;2023-04-29T00:33:21;51.20;;;25.83;;
21046;SDS011;10682;50.874;3.656;2023-04-29T00:35:48;53.57;;;25.63;;
21046;SDS011;10682;50.874;3.656;2023-04-29T00:38:15;51.73;;;25.80;;
21046;SDS011;10682;50.874;3.656;2023-04-29T00:40:43;56.90;;;26.83;;
21046;SDS011;10682;50.874;3.656;2023-04-29T00:43:10;56.63;;;26.17;;
21046;SDS011;10682;50.874;3.656;2023-04-29T00:45:38;60.53;;;28.37;;
21046;SDS011;10682;50.874;3.656;2023-04-29T00:48:05;55.57;;;26.50;;
21046;SDS011;10682;50.874;3.656;2023-04-29T00:50:33;55.30;;;26.50;;
21046;SDS011;10682;50.874;3.656;2023-04-29T00:53:02;56.80;;;26.60;;
21046;SDS011;10682;50.874;3.656;2023-04-29T00:55:30;54.53;;;26.43;;
21046;SDS011;10682;50.874;3.656;2023-04-29T00:57:59;53.40;;;26.30;;
21046;SDS011;10682;50.874;3.656;2023-04-29T01:00:27;60.63;;;27.77;;
21046;SDS011;10682;50.874;3.656;2023-04-29T01:02:56;61.40;;;27.90;;
21046;SDS011;10682;50.874;3.656;2023-04-29T01:05:25;58.93;;;27.47;;
21046;SDS011;10682;50.874;3.656;2023-04-29T01:10:38;62.37;;;27.93;;
21046;SDS011;10682;50.874;3.656;2023-04-29T01:13:23;65.20;;;28.13;;
21046;SDS011;10682;50.874;3.656;2023-04-29T01:22:20;66.67;;;28.70;;
21046;SDS011;10682;50.874;3.656;2023-04-29T01:24:47;67.67;;;28.60;;
21046;SDS011;10682;50.874;3.656;2023-04-29T01:36:17;61.43;;;27.90;;
21046;SDS011;10682;50.874;3.656;2023-04-29T01:42:09;70.43;;;30.50;;
21046;SDS011;10682;50.874;3.656;2023-04-29T01:44:50;65.13;;;29.40;;
21046;SDS011;10682;50.874;3.656;2023-04-29T01:47:20;61.97;;;28.27;;
21046;SDS011;10682;50.874;3.656;2023-04-29T01:49:48;58.13;;;28.17;;
21046;SDS011;10682;50.874;3.656;2023-04-29T01:52:16;64.83;;;30.50;;
21046;SDS011;10682;50.874;3.656;2023-04-29T01:54:43;69.23;;;30.53;;
21046;SDS011;10682;50.874;3.656;2023-04-29T01:57:11;64.50;;;29.93;;
21046;SDS011;10682;50.874;3.656;2023-04-29T01:59:38;65.80;;;30.30;;
21046;SDS011;10682;50.874;3.656;2023-04-29T02:02:05;73.77;;;30.70;;
21046;SDS011;10682;50.874;3.656;2023-04-29T02:04:32;70.03;;;31.47;;
21046;SDS011;10682;50.874;3.656;2023-04-29T02:06:59;81.83;;;32.50;;
21046;SDS011;10682;50.874;3.656;2023-04-29T02:09:26;74.80;;;31.63;;
21046;SDS011;10682;50.874;3.656;2023-04-29T02:11:53;73.40;;;31.80;;
21046;SDS011;10682;50.874;3.656;2023-04-29T02:14:20;74.17;;;32.00;;
21046;SDS011;10682;50.874;3.656;2023-04-29T02:16:47;74.67;;;32.00;;
21046;SDS011;10682;50.874;3.656;2023-04-29T02:19:14;78.77;;;31.97;;
21046;SDS011;10682;50.874;3.656;2023-04-29T02:21:41;61.97;;;29.93;;
21046;SDS011;10682;50.874;3.656;2023-04-29T02:24:09;63.37;;;30.57;;
21046;SDS011;10682;50.874;3.656;2023-04-29T02:26:36;72.10;;;31.40;;
21046;SDS011;10682;50.874;3.656;2023-04-29T02:29:03;69.37;;;31.47;;
21046;SDS011;10682;50.874;3.656;2023-04-29T02:31:30;71.40;;;32.63;;
21046;SDS011;10682;50.874;3.656;2023-04-29T02:33:57;60.73;;;29.53;;
21046;SDS011;10682;50.874;3.656;2023-04-29T02:36:25;58.30;;;27.57;;
21046;SDS011;10682;50.874;3.656;2023-04-29T02:38:52;52.70;;;25.77;;
21046;SDS011;10682;50.874;3.656;2023-04-29T02:41:20;48.97;;;23.17;;
21046;SDS011;10682;50.874;3.656;2023-04-29T02:43:47;35.30;;;19.23;;
21046;SDS011;10682;50.874;3.656;2023-04-29T02:46:14;32.33;;;19.00;;
21046;SDS011;10682;50.874;3.656;2023-04-29T02:48:44;28.83;;;16.07;;
21046;SDS011;10682;50.874;3.656;2023-04-29T02:51:11;34.97;;;18.20;;
21046;SDS011;10682;50.874;3.656;2023-04-29T02:53:38;36.33;;;18.57;;
21046;SDS011;10682;50.874;3.656;2023-04-29T02:56:05;39.40;;;20.07;;
21046;SDS011;10682;50.874;3.656;2023-04-29T02:58:32;36.97;;;19.73;;
21046;SDS011;10682;50.874;3.656;2023-04-29T03:00:59;35.97;;;20.70;;
21046;SDS011;10682;50.874;3.656;2023-04-29T03:03:26;36.77;;;20.57;;
21046;SDS011;10682;50.874;3.656;2023-04-29T03:05:53;38.33;;;21.10;;
21046;SDS011;10682;50.874;3.656;2023-04-29T03:08:20;41.00;;;22.43;;
21046;SDS011;10682;50.874;3.656;2023-04-29T03:10:47;42.60;;;23.10;;
21046;SDS011;10682;50.874;3.656;2023-04-29T03:13:14;42.30;;;23.37;;
21046;SDS011;10682;50.874;3.656;2023-04-29T03:15:41;45.17;;;24.23;;
21046;SDS011;10682;50.874;3.656;2023-04-29T03:18:09;50.70;;;24.53;;
21046;SDS011;10682;50.874;3.656;2023-04-29T03:20:36;38.47;;;23.73;;
21046;SDS011;10682;50.874;3.656;2023-04-29T03:23:03;38.63;;;23.87;;
21046;SDS011;10682;50.874;3.656;2023-04-29T03:25:30;39.07;;;23.03;;
21046;SDS011;10682;50.874;3.656;2023-04-29T03:27:57;39.10;;;22.23;;
21046;SDS011;10682;50.874;3.656;2023-04-29T03:30:24;39.07;;;21.77;;
21046;SDS011;10682;50.874;3.656;2023-04-29T03:32:52;39.23;;;22.40;;
21046;SDS011;10682;50.874;3.656;2023-04-29T03:35:19;39.17;;;20.93;;
21046;SDS011;10682;50.874;3.656;2023-04-29T03:37:46;42.60;;;21.60;;
21046;SDS011;10682;50.874;3.656;2023-04-29T03:40:13;44.43;;;21.60;;
21046;SDS011;10682;50.874;3.656;2023-04-29T03:42:40;39.53;;;21.67;;
21046;SDS011;10682;50.874;3.656;2023-04-29T03:45:07;39.67;;;21.60;;
21046;SDS011;10682;50.874;3.656;2023-04-29T03:47:35;39.77;;;21.23;;
21046;SDS011;10682;50.874;3.656;2023-04-29T03:50:02;38.90;;;20.43;;
21046;SDS011;10682;50.874;3.656;2023-04-29T03:52:30;40.03;;;21.53;;
21046;SDS011;10682;50.874;3.656;2023-04-29T03:54:57;41.37;;;20.17;;
21046;SDS011;10682;50.874;3.656;2023-04-29T03:57:24;43.67;;;20.10;;
21046;SDS011;10682;50.874;3.656;2023-04-29T03:59:51;43.70;;;21.50;;
21046;SDS011;10682;50.874;3.656;2023-04-29T04:02:18;34.60;;;19.97;;
21046;SDS011;10682;50.874;3.656;2023-04-29T04:04:45;36.47;;;21.13;;
21046;SDS011;10682;50.874;3.656;2023-04-29T04:07:13;36.47;;;19.67;;
21046;SDS011;10682;50.874;3.656;2023-04-29T04:09:40;38.33;;;20.60;;
21046;SDS011;10682;50.874;3.656;2023-04-29T04:12:07;38.60;;;20.13;;
21046;SDS011;10682;50.874;3.656;2023-04-29T04:14:34;36.80;;;19.23;;
21046;SDS011;10682;50.874;3.656;2023-04-29T04:17:00;37.97;;;19.37;;
21046;SDS011;10682;50.874;3.656;2023-04-29T04:19:29;31.13;;;18.47;;
21046;SDS011;10682;50.874;3.656;2023-04-29T04:21:56;38.47;;;18.37;;
21046;SDS011;10682;50.874;3.656;2023-04-29T04:24:23;34.93;;;18.30;;
21046;SDS011;10682;50.874;3.656;2023-04-29T04:26:50;36.63;;;18.50;;
21046;SDS011;10682;50.874;3.656;2023-04-29T04:29:17;39.60;;;18.20;;
21046;SDS011;10682;50.874;3.656;2023-04-29T04:31:44;35.30;;;16.93;;
21046;SDS011;10682;50.874;3.656;2023-04-29T04:34:12;36.03;;;18.00;;
21046;SDS011;10682;50.874;3.656;2023-04-29T04:36:39;35.73;;;17.40;;
21046;SDS011;10682;50.874;3.656;2023-04-29T04:39:07;30.03;;;16.20;;
21046;SDS011;10682;50.874;3.656;2023-04-29T04:41:34;29.90;;;16.00;;
21046;SDS011;10682;50.874;3.656;2023-04-29T04:44:01;32.17;;;15.87;;
21046;SDS011;10682;50.874;3.656;2023-04-29T04:46:28;31.53;;;16.30;;
21046;SDS011;10682;50.874;3.656;2023-04-29T04:48:55;31.50;;;15.50;;
21046;SDS011;10682;50.874;3.656;2023-04-29T04:51:22;36.77;;;15.90;;
21046;SDS011;10682;50.874;3.656;2023-04-29T04:53:49;28.70;;;15.60;;
21046;SDS011;10682;50.874;3.656;2023-04-29T04:56:16;30.60;;;17.03;;
21046;SDS011;10682;50.874;3.656;2023-04-29T04:58:43;30.13;;;15.90;;
21046;SDS011;10682;50.874;3.656;2023-04-29T05:01:10;33.03;;;16.63;;
21046;SDS011;10682;50.874;3.656;2023-04-29T05:03:37;29.60;;;16.07;;
21046;SDS011;10682;50.874;3.656;2023-04-29T05:06:04;35.73;;;16.27;;
21046;SDS011;10682;50.874;3.656;2023-04-29T05:08:31;33.77;;;15.90;;
21046;SDS011;10682;50.874;3.656;2023-04-29T05:10:58;34.53;;;15.93;;
21046;SDS011;10682;50.874;3.656;2023-04-29T05:13:26;31.63;;;16.23;;
21046;SDS011;10682;50.874;3.656;2023-04-29T05:15:53;36.07;;;16.33;;
21046;SDS011;10682;50.874;3.656;2023-04-29T05:18:20;37.83;;;17.30;;
21046;SDS011;10682;50.874;3.656;2023-04-29T05:20:47;36.03;;;16.70;;
21046;SDS011;10682;50.874;3.656;2023-04-29T05:23:14;34.10;;;16.80;;
21046;SDS011;10682;50.874;3.656;2023-04-29T05:25:41;31.03;;;17.17;;
21046;SDS011;10682;50.874;3.656;2023-04-29T05:28:08;32.23;;;16.40;;
21046;SDS011;10682;50.874;3.656;2023-04-29T05:30:35;34.80;;;16.63;;
21046;SDS011;10682;50.874;3.656;2023-04-29T05:33:03;34.93;;;16.50;;
21046;SDS011;10682;50.874;3.656;2023-04-29T05:35:30;28.10;;;16.50;;
21046;SDS011;10682;50.874;3.656;2023-04-29T05:37:57;32.47;;;17.27;;
21046;SDS011;10682;50.874;3.656;2023-04-29T05:40:24;34.27;;;16.97;;
21046;SDS011;10682;50.874;3.656;2023-04-29T05:42:51;36.17;;;18.00;;
21046;SDS011;10682;50.874;3.656;2023-04-29T05:45:18;37.53;;;17.53;;
21046;SDS011;10682;50.874;3.656;2023-04-29T05:47:45;30.03;;;16.40;;
21046;SDS011;10682;50.874;3.656;2023-04-29T05:50:12;36.13;;;17.23;;
21046;SDS011;10682;50.874;3.656;2023-04-29T05:52:39;35.37;;;17.23;;
21046;SDS011;10682;50.874;3.656;2023-04-29T05:55:06;35.53;;;17.50;;
21046;SDS011;10682;50.874;3.656;2023-04-29T05:57:33;30.30;;;17.03;;
21046;SDS011;10682;50.874;3.656;2023-04-29T06:00:03;31.97;;;18.33;;
21046;SDS011;10682;50.874;3.656;2023-04-29T06:02:32;35.70;;;17.70;;
21046;SDS011;10682;50.874;3.656;2023-04-29T06:05:04;43.43;;;20.93;;
21046;SDS011;10682;50.874;3.656;2023-04-29T06:07:32;37.77;;;19.27;;
21046;SDS011;10682;50.874;3.656;2023-04-29T06:09:59;40.33;;;19.57;;
21046;SDS011;10682;50.874;3.656;2023-04-29T06:12:26;35.53;;;19.77;;
21046;SDS011;10682;50.874;3.656;2023-04-29T06:14:53;37.03;;;19.40;;
21046;SDS011;10682;50.874;3.656;2023-04-29T06:17:20;36.00;;;20.23;;
21046;SDS011;10682;50.874;3.656;2023-04-29T06:19:47;37.40;;;20.47;;
21046;SDS011;10682;50.874;3.656;2023-04-29T06:22:14;38.13;;;20.83;;
21046;SDS011;10682;50.874;3.656;2023-04-29T06:24:41;39.10;;;22.03;;
21046;SDS011;10682;50.874;3.656;2023-04-29T06:27:08;41.87;;;22.30;;
21046;SDS011;10682;50.874;3.656;2023-04-29T06:29:35;40.80;;;22.57;;
21046;SDS011;10682;50.874;3.656;2023-04-29T06:32:02;39.30;;;22.30;;
21046;SDS011;10682;50.874;3.656;2023-04-29T06:34:29;40.33;;;22.93;;
21046;SDS011;10682;50.874;3.656;2023-04-29T06:36:57;36.13;;;22.23;;
21046;SDS011;10682;50.874;3.656;2023-04-29T06:39:24;38.00;;;21.87;;
21046;SDS011;10682;50.874;3.656;2023-04-29T06:41:51;42.47;;;22.63;;
21046;SDS011;10682;50.874;3.656;2023-04-29T06:44:18;39.60;;;21.60;;
21046;SDS011;10682;50.874;3.656;2023-04-29T06:46:45;46.27;;;23.00;;
21046;SDS011;10682;50.874;3.656;2023-04-29T06:49:12;46.03;;;23.53;;
21046;SDS011;10682;50.874;3.656;2023-04-29T06:51:39;40.07;;;22.07;;
21046;SDS011;10682;50.874;3.656;2023-04-29T06:54:07;42.97;;;22.23;;
21046;SDS011;10682;50.874;3.656;2023-04-29T06:56:34;38.30;;;21.63;;
21046;SDS011;10682;50.874;3.656;2023-04-29T06:59:01;39.73;;;21.97;;
21046;SDS011;10682;50.874;3.656;2023-04-29T07:01:29;37.03;;;21.17;;
21046;SDS011;10682;50.874;3.656;2023-04-29T07:03:56;41.83;;;20.97;;
21046;SDS011;10682;50.874;3.656;2023-04-29T07:06:24;37.93;;;21.03;;
21046;SDS011;10682;50.874;3.656;2023-04-29T07:08:51;42.03;;;21.33;;
21046;SDS011;10682;50.874;3.656;2023-04-29T07:11:21;40.50;;;21.10;;
21046;SDS011;10682;50.874;3.656;2023-04-29T07:13:51;33.67;;;19.53;;
21046;SDS011;10682;50.874;3.656;2023-04-29T07:16:18;40.87;;;21.97;;
21046;SDS011;10682;50.874;3.656;2023-04-29T07:18:47;38.60;;;21.27;;
21046;SDS011;10682;50.874;3.656;2023-04-29T07:21:14;42.63;;;21.47;;
21046;SDS011;10682;50.874;3.656;2023-04-29T07:23:41;41.77;;;21.57;;
21046;SDS011;10682;50.874;3.656;2023-04-29T07:26:09;46.17;;;20.60;;
21046;SDS011;10682;50.874;3.656;2023-04-29T07:28:41;39.80;;;21.37;;
21046;SDS011;10682;50.874;3.656;2023-04-29T07:31:09;38.43;;;21.63;;
21046;SDS011;10682;50.874;3.656;2023-04-29T07:33:40;34.27;;;19.90;;
21046;SDS011;10682;50.874;3.656;2023-04-29T07:36:07;40.30;;;21.33;;
21046;SDS011;10682;50.874;3.656;2023-04-29T07:38:34;36.77;;;21.40;;
21046;SDS011;10682;50.874;3.656;2023-04-29T07:41:02;44.00;;;21.43;;
21046;SDS011;10682;50.874;3.656;2023-04-29T07:43:29;45.80;;;21.83;;
21046;SDS011;10682;50.874;3.656;2023-04-29T07:45:56;40.20;;;22.17;;
21046;SDS011;10682;50.874;3.656;2023-04-29T07:48:23;43.87;;;21.47;;
21046;SDS011;10682;50.874;3.656;2023-04-29T07:50:50;39.70;;;20.57;;
21046;SDS011;10682;50.874;3.656;2023-04-29T07:53:17;40.77;;;20.67;;
21046;SDS011;10682;50.874;3.656;2023-04-29T07:55:44;41.93;;;21.00;;
21046;SDS011;10682;50.874;3.656;2023-04-29T07:58:12;38.10;;;19.87;;
21046;SDS011;10682;50.874;3.656;2023-04-29T08:00:39;37.07;;;20.63;;
21046;SDS011;10682;50.874;3.656;2023-04-29T08:03:06;39.33;;;20.47;;
21046;SDS011;10682;50.874;3.656;2023-04-29T08:05:33;40.57;;;20.73;;
21046;SDS011;10682;50.874;3.656;2023-04-29T08:08:01;40.70;;;22.07;;
21046;SDS011;10682;50.874;3.656;2023-04-29T08:10:28;39.83;;;20.03;;
21046;SDS011;10682;50.874;3.656;2023-04-29T08:12:56;37.07;;;18.93;;
21046;SDS011;10682;50.874;3.656;2023-04-29T08:15:23;42.97;;;21.00;;
21046;SDS011;10682;50.874;3.656;2023-04-29T08:17:50;37.33;;;20.27;;
21046;SDS011;10682;50.874;3.656;2023-04-29T08:20:17;36.77;;;20.37;;
21046;SDS011;10682;50.874;3.656;2023-04-29T08:22:44;37.53;;;19.50;;
21046;SDS011;10682;50.874;3.656;2023-04-29T08:25:11;35.20;;;19.20;;
21046;SDS011;10682;50.874;3.656;2023-04-29T08:27:38;36.87;;;18.47;;
21046;SDS011;10682;50.874;3.656;2023-04-29T08:30:05;36.33;;;18.23;;
21046;SDS011;10682;50.874;3.656;2023-04-29T08:32:33;36.53;;;19.67;;
21046;SDS011;10682;50.874;3.656;2023-04-29T08:35:01;32.47;;;18.23;;
21046;SDS011;10682;50.874;3.656;2023-04-29T08:37:28;37.83;;;19.70;;
21046;SDS011;10682;50.874;3.656;2023-04-29T08:39:55;35.63;;;18.27;;
21046;SDS011;10682;50.874;3.656;2023-04-29T08:42:29;35.43;;;18.10;;
21046;SDS011;10682;50.874;3.656;2023-04-29T08:45:00;31.40;;;18.43;;
21046;SDS011;10682;50.874;3.656;2023-04-29T08:47:31;30.67;;;17.47;;
21046;SDS011;10682;50.874;3.656;2023-04-29T08:50:03;32.37;;;17.90;;
21046;SDS011;10682;50.874;3.656;2023-04-29T08:52:31;36.17;;;18.17;;
21046;SDS011;10682;50.874;3.656;2023-04-29T08:54:59;33.93;;;18.17;;
21046;SDS011;10682;50.874;3.656;2023-04-29T08:57:30;34.47;;;16.77;;
21046;SDS011;10682;50.874;3.656;2023-04-29T09:00:08;34.33;;;17.90;;
21046;SDS011;10682;50.874;3.656;2023-04-29T09:02:37;34.53;;;18.17;;
21046;SDS011;10682;50.874;3.656;2023-04-29T09:05:12;30.73;;;17.57;;
21046;SDS011;10682;50.874;3.656;2023-04-29T09:07:40;28.07;;;17.33;;
21046;SDS011;10682;50.874;3.656;2023-04-29T09:10:07;31.87;;;16.83;;
21046;SDS011;10682;50.874;3.656;2023-04-29T09:12:36;28.97;;;17.10;;
21046;SDS011;10682;50.874;3.656;2023-04-29T09:15:03;31.92;;;16.98;;
21046;SDS011;10682;50.874;3.656;2023-04-29T09:17:40;33.45;;;17.60;;
21046;SDS011;10682;50.874;3.656;2023-04-29T09:20:29;27.90;;;17.60;;
21046;SDS011;10682;50.874;3.656;2023-04-29T09:22:57;32.67;;;17.50;;
21046;SDS011;10682;50.874;3.656;2023-04-29T09:25:26;34.63;;;19.70;;
21046;SDS011;10682;50.874;3.656;2023-04-29T09:27:54;36.85;;;20.92;;
21046;SDS011;10682;50.874;3.656;2023-04-29T09:30:21;35.93;;;19.30;;
21046;SDS011;10682;50.874;3.656;2023-04-29T09:33:02;37.65;;;19.40;;
21046;SDS011;10682;50.874;3.656;2023-04-29T09:35:34;32.72;;;18.27;;
21046;SDS011;10682;50.874;3.656;2023-04-29T09:38:09;36.03;;;19.55;;
21046;SDS011;10682;50.874;3.656;2023-04-29T09:40:41;40.22;;;21.15;;
21046;SDS011;10682;50.874;3.656;2023-04-29T09:43:24;41.00;;;20.42;;
21046;SDS011;10682;50.874;3.656;2023-04-29T09:45:51;38.13;;;19.03;;
21046;SDS011;10682;50.874;3.656;2023-04-29T09:48:18;38.75;;;20.88;;
21046;SDS011;10682;50.874;3.656;2023-04-29T09:50:58;38.87;;;21.07;;
21046;SDS011;10682;50.874;3.656;2023-04-29T09:53:30;39.17;;;21.40;;
21046;SDS011;10682;50.874;3.656;2023-04-29T09:56:01;42.20;;;20.40;;
21046;SDS011;10682;50.874;3.656;2023-04-29T10:01:03;39.93;;;21.63;;
21046;SDS011;10682;50.874;3.656;2023-04-29T10:03:35;38.53;;;20.05;;
21046;SDS011;10682;50.874;3.656;2023-04-29T10:06:05;34.60;;;20.33;;
21046;SDS011;10682;50.874;3.656;2023-04-29T10:08:33;42.78;;;20.85;;
21046;SDS011;10682;50.874;3.656;2023-04-29T10:11:01;37.63;;;19.23;;
21046;SDS011;10682;50.874;3.656;2023-04-29T10:13:29;37.50;;;20.08;;
21046;SDS011;10682;50.874;3.656;2023-04-29T10:16:05;36.65;;;19.77;;
21046;SDS011;10682;50.874;3.656;2023-04-29T10:18:36;38.90;;;19.67;;
21046;SDS011;10682;50.874;3.656;2023-04-29T10:21:07;52.88;;;20.00;;
21046;SDS011;10682;50.874;3.656;2023-04-29T10:23:35;33.38;;;19.00;;
21046;SDS011;10682;50.874;3.656;2023-04-29T10:26:02;33.03;;;18.63;;
21046;SDS011;10682;50.874;3.656;2023-04-29T10:28:32;28.88;;;18.05;;
21046;SDS011;10682;50.874;3.656;2023-04-29T10:31:00;34.92;;;19.45;;
21046;SDS011;10682;50.874;3.656;2023-04-29T10:33:29;32.25;;;18.13;;
21046;SDS011;10682;50.874;3.656;2023-04-29T10:35:59;32.70;;;17.48;;
21046;SDS011;10682;50.874;3.656;2023-04-29T10:38:28;26.38;;;15.95;;
21046;SDS011;10682;50.874;3.656;2023-04-29T10:41:03;33.78;;;17.92;;
21046;SDS011;10682;50.874;3.656;2023-04-29T10:43:40;26.35;;;16.25;;
21046;SDS011;10682;50.874;3.656;2023-04-29T10:46:25;32.05;;;17.52;;
21046;SDS011;10682;50.874;3.656;2023-04-29T10:48:57;29.05;;;16.90;;
21046;SDS011;10682;50.874;3.656;2023-04-29T10:51:34;25.27;;;15.93;;
21046;SDS011;10682;50.874;3.656;2023-04-29T10:54:14;23.85;;;15.10;;
21046;SDS011;10682;50.874;3.656;2023-04-29T10:59:19;23.55;;;13.80;;
21046;SDS011;10682;50.874;3.656;2023-04-29T11:01:49;24.15;;;13.32;;
21046;SDS011;10682;50.874;3.656;2023-04-29T11:04:18;24.27;;;14.23;;
21046;SDS011;10682;50.874;3.656;2023-04-29T11:06:54;18.88;;;13.13;;
21046;SDS011;10682;50.874;3.656;2023-04-29T11:09:27;22.02;;;12.93;;
21046;SDS011;10682;50.874;3.656;2023-04-29T11:12:00;18.75;;;11.15;;
21046;SDS011;10682;50.874;3.656;2023-04-29T11:14:42;15.82;;;10.77;;
21046;SDS011;10682;50.874;3.656;2023-04-29T11:17:16;16.17;;;10.38;;
21046;SDS011;10682;50.874;3.656;2023-04-29T11:19:49;19.80;;;11.30;;
21046;SDS011;10682;50.874;3.656;2023-04-29T11:24:57;16.10;;;10.13;;
21046;SDS011;10682;50.874;3.656;2023-04-29T11:30:02;18.40;;;11.48;;
21046;SDS011;10682;50.874;3.656;2023-04-29T11:32:36;17.98;;;10.32;;
21046;SDS011;10682;50.874;3.656;2023-04-29T11:37:37;15.43;;;10.25;;
21046;SDS011;10682;50.874;3.656;2023-04-29T11:40:05;15.43;;;10.07;;
21046;SDS011;10682;50.874;3.656;2023-04-29T11:42:34;14.43;;;10.65;;
21046;SDS011;10682;50.874;3.656;2023-04-29T11:45:06;16.83;;;11.50;;
21046;SDS011;10682;50.874;3.656;2023-04-29T11:47:34;15.30;;;9.80;;
21046;SDS011;10682;50.874;3.656;2023-04-29T11:50:02;15.68;;;10.68;;
21046;SDS011;10682;50.874;3.656;2023-04-29T11:52:34;17.13;;;12.00;;
21046;SDS011;10682;50.874;3.656;2023-04-29T11:55:03;15.77;;;10.60;;
21046;SDS011;10682;50.874;3.656;2023-04-29T11:57:31;16.77;;;10.50;;
21046;SDS011;10682;50.874;3.656;2023-04-29T12:00:02;15.13;;;10.80;;
21046;SDS011;10682;50.874;3.656;2023-04-29T12:02:33;16.35;;;9.00;;
21046;SDS011;10682;50.874;3.656;2023-04-29T12:05:06;14.10;;;9.40;;
21046;SDS011;10682;50.874;3.656;2023-04-29T12:07:34;16.27;;;9.63;;
21046;SDS011;10682;50.874;3.656;2023-04-29T12:10:02;18.17;;;10.32;;
21046;SDS011;10682;50.874;3.656;2023-04-29T12:12:34;17.77;;;10.27;;
21046;SDS011;10682;50.874;3.656;2023-04-29T12:15:02;18.25;;;10.38;;
21046;SDS011;10682;50.874;3.656;2023-04-29T12:17:30;21.02;;;10.15;;
21046;SDS011;10682;50.874;3.656;2023-04-29T12:19:58;16.35;;;10.63;;
21046;SDS011;10682;50.874;3.656;2023-04-29T12:22:31;15.07;;;10.50;;
21046;SDS011;10682;50.874;3.656;2023-04-29T12:24:58;17.23;;;11.15;;
21046;SDS011;10682;50.874;3.656;2023-04-29T12:27:28;17.30;;;11.50;;
21046;SDS011;10682;50.874;3.656;2023-04-29T12:29:56;15.48;;;10.63;;
21046;SDS011;10682;50.874;3.656;2023-04-29T12:32:23;17.75;;;11.77;;
21046;SDS011;10682;50.874;3.656;2023-04-29T12:34:51;19.67;;;10.52;;
21046;SDS011;10682;50.874;3.656;2023-04-29T12:37:21;17.15;;;10.00;;
21046;SDS011;10682;50.874;3.656;2023-04-29T12:39:49;16.40;;;10.80;;
21046;SDS011;10682;50.874;3.656;2023-04-29T12:42:16;14.57;;;10.48;;
21046;SDS011;10682;50.874;3.656;2023-04-29T12:44:47;16.63;;;10.52;;
21046;SDS011;10682;50.874;3.656;2023-04-29T12:47:14;15.77;;;11.05;;
21046;SDS011;10682;50.874;3.656;2023-04-29T12:49:45;16.58;;;9.18;;
21046;SDS011;10682;50.874;3.656;2023-04-29T12:52:14;15.88;;;10.77;;
21046;SDS011;10682;50.874;3.656;2023-04-29T12:54:41;15.98;;;10.82;;
21046;SDS011;10682;50.874;3.656;2023-04-29T12:57:09;18.92;;;11.30;;
21046;SDS011;10682;50.874;3.656;2023-04-29T12:59:37;16.13;;;10.15;;
21046;SDS011;10682;50.874;3.656;2023-04-29T13:02:06;19.15;;;10.50;;
21046;SDS011;10682;50.874;3.656;2023-04-29T13:04:33;16.25;;;10.10;;
21046;SDS011;10682;50.874;3.656;2023-04-29T13:07:01;17.20;;;11.55;;
21046;SDS011;10682;50.874;3.656;2023-04-29T13:09:29;19.05;;;11.70;;
21046;SDS011;10682;50.874;3.656;2023-04-29T13:11:56;19.73;;;11.52;;
21046;SDS011;10682;50.874;3.656;2023-04-29T13:14:24;17.90;;;11.60;;
21046;SDS011;10682;50.874;3.656;2023-04-29T13:16:52;19.88;;;11.70;;
21046;SDS011;10682;50.874;3.656;2023-04-29T13:19:19;16.77;;;10.88;;
21046;SDS011;10682;50.874;3.656;2023-04-29T13:22:06;19.33;;;11.52;;
21046;SDS011;10682;50.874;3.656;2023-04-29T13:24:34;16.67;;;10.80;;
21046;SDS011;10682;50.874;3.656;2023-04-29T13:27:01;17.80;;;11.93;;
21046;SDS011;10682;50.874;3.656;2023-04-29T13:29:29;15.90;;;12.25;;
21046;SDS011;10682;50.874;3.656;2023-04-29T13:31:56;19.73;;;12.43;;
21046;SDS011;10682;50.874;3.656;2023-04-29T13:34:23;18.35;;;12.35;;
21046;SDS011;10682;50.874;3.656;2023-04-29T13:36:50;17.60;;;13.10;;
21046;SDS011;10682;50.874;3.656;2023-04-29T13:39:17;17.95;;;12.18;;
21046;SDS011;10682;50.874;3.656;2023-04-29T13:41:45;19.00;;;12.70;;
21046;SDS011;10682;50.874;3.656;2023-04-29T13:44:12;20.88;;;12.38;;
21046;SDS011;10682;50.874;3.656;2023-04-29T13:46:58;17.83;;;12.52;;
21046;SDS011;10682;50.874;3.656;2023-04-29T13:49:27;19.10;;;12.27;;
21046;SDS011;10682;50.874;3.656;2023-04-29T13:52:14;17.25;;;12.43;;
21046;SDS011;10682;50.874;3.656;2023-04-29T13:54:44;20.73;;;11.95;;
21046;SDS011;10682;50.874;3.656;2023-04-29T13:57:14;18.90;;;11.90;;
21046;SDS011;10682;50.874;3.656;2023-04-29T14:00:01;18.05;;;11.90;;
21046;SDS011;10682;50.874;3.656;2023-04-29T14:02:48;19.75;;;13.38;;
21046;SDS011;10682;50.874;3.656;2023-04-29T14:05:23;18.75;;;12.45;;
21046;SDS011;10682;50.874;3.656;2023-04-29T14:07:50;17.17;;;12.60;;
21046;SDS011;10682;50.874;3.656;2023-04-29T14:10:17;17.42;;;12.68;;
21046;SDS011;10682;50.874;3.656;2023-04-29T14:12:44;16.73;;;11.07;;
21046;SDS011;10682;50.874;3.656;2023-04-29T14:15:12;15.98;;;11.35;;
21046;SDS011;10682;50.874;3.656;2023-04-29T14:17:40;16.15;;;12.10;;
21046;SDS011;10682;50.874;3.656;2023-04-29T14:20:07;20.60;;;12.20;;
21046;SDS011;10682;50.874;3.656;2023-04-29T14:22:34;15.57;;;11.55;;
21046;SDS011;10682;50.874;3.656;2023-04-29T14:25:01;17.98;;;11.70;;
21046;SDS011;10682;50.874;3.656;2023-04-29T14:27:28;18.27;;;11.23;;
21046;SDS011;10682;50.874;3.656;2023-04-29T14:29:55;19.65;;;11.75;;
21046;SDS011;10682;50.874;3.656;2023-04-29T14:32:22;18.15;;;11.82;;
21046;SDS011;10682;50.874;3.656;2023-04-29T14:34:49;18.67;;;12.57;;
21046;SDS011;10682;50.874;3.656;2023-04-29T14:37:16;17.80;;;12.60;;
21046;SDS011;10682;50.874;3.656;2023-04-29T14:41:55;23.13;;;13.30;;
21046;SDS011;10682;50.874;3.656;2023-04-29T14:44:22;15.70;;;10.43;;
21046;SDS011;10682;50.874;3.656;2023-04-29T14:46:49;16.65;;;10.73;;
21046;SDS011;10682;50.874;3.656;2023-04-29T14:49:16;17.30;;;10.60;;
21046;SDS011;10682;50.874;3.656;2023-04-29T14:51:44;18.83;;;11.05;;
21046;SDS011;10682;50.874;3.656;2023-04-29T14:54:10;16.00;;;11.05;;
21046;SDS011;10682;50.874;3.656;2023-04-29T14:56:38;20.70;;;11.68;;
21046;SDS011;10682;50.874;3.656;2023-04-29T14:59:05;16.60;;;11.15;;
21046;SDS011;10682;50.874;3.656;2023-04-29T15:01:34;17.30;;;11.35;;
21046;SDS011;10682;50.874;3.656;2023-04-29T15:04:01;17.55;;;11.05;;
21046;SDS011;10682;50.874;3.656;2023-04-29T15:06:30;15.75;;;10.73;;